Observation data for Plains on 08/12/2019      Previous  Date  Next       Current Mesonet Observations  Soil Data  Daily Summary Page  Observations in Plain Language
KPPS 120500Z 35006KT 26/14 A3004 RMK A01 T02600139  RH  049%=      5-min Rain = 0
KPPS 120505Z 01007KT 27/14 A3004 RMK A01 T02650137  RH  047%=      5-min Rain = 0
KPPS 120510Z 00007KT 27/14 A3004 RMK A01 T02680137  RH  046%=      5-min Rain = 0
KPPS 120515Z 04005KT 27/14 A3004 RMK A01 T02690136  RH  046%=      5-min Rain = 0
KPPS 120520Z 06007KT 27/14 A3003 RMK A01 T02660139  RH  047%=      5-min Rain = 0
KPPS 120525Z 05006KT 26/14 A3003 RMK A01 T02630140  RH  049%=      5-min Rain = 0
KPPS 120530Z 06006KT 26/14 A3004 RMK A01 T02630140  RH  049%=      5-min Rain = 0
KPPS 120535Z 07006KT 26/14 A3004 RMK A01 T02640138  RH  048%=      5-min Rain = 0
KPPS 120540Z 06006KT 27/14 A3004 RMK A01 T02650137  RH  047%=      5-min Rain = 0
KPPS 120545Z 06007KT 27/14 A3004 RMK A01 T02650136  RH  047%=      5-min Rain = 0
KPPS 120550Z 05006KT 27/14 A3004 RMK A01 T02650135  RH  047%=      5-min Rain = 0
KPPS 120555Z 06007KT 26/14 A3004 RMK A01 T02630136  RH  047%=      5-min Rain = 0
KPPS 120600Z 07006KT 26/14 A3004 RMK A01 T02590136  RH  049%=      5-min Rain = 0
KPPS 120605Z 07006KT 26/14 A3004 RMK A01 T02560135  RH  049%=      5-min Rain = 0
KPPS 120610Z 09006KT 26/13 A3005 RMK A01 T02560134  RH  049%=      5-min Rain = 0
KPPS 120615Z 08007KT 26/13 A3004 RMK A01 T02550134  RH  049%=      5-min Rain = 0
KPPS 120620Z 08008KT 25/14 A3004 RMK A01 T02530135  RH  050%=      5-min Rain = 0
KPPS 120625Z 09007KT 25/14 A3004 RMK A01 T02520135  RH  050%=      5-min Rain = 0
KPPS 120630Z 08006KT 25/14 A3004 RMK A01 T02490135  RH  051%=      5-min Rain = 0
KPPS 120635Z 10005G10KT 25/14 A3004 RMK A01 T02480135  RH  051%=      5-min Rain = 0
KPPS 120640Z 07011KT 25/13 A3004 RMK A01 T02510134  RH  050%=      5-min Rain = 0
KPPS 120645Z 05009KT 25/14 A3004 RMK A01 T02480135  RH  051%=      5-min Rain = 0
KPPS 120650Z 05008KT 25/14 A3004 RMK A01 T02460136  RH  052%=      5-min Rain = 0
KPPS 120655Z 06007KT 24/14 A3004 RMK A01 T02440135  RH  053%=      5-min Rain = 0
KPPS 120700Z 06006KT 24/14 A3004 RMK A01 T02420136  RH  054%=      5-min Rain = 0
KPPS 120705Z 05005KT 24/14 A3005 RMK A01 T02390136  RH  055%=      5-min Rain = 0
KPPS 120710Z 04003KT 24/14 A3005 RMK A01 T02380137  RH  055%=      5-min Rain = 0
KPPS 120715Z 05006KT 24/14 A3004 RMK A01 T02370137  RH  055%=      5-min Rain = 0
KPPS 120720Z 05007KT 24/14 A3004 RMK A01 T02360136  RH  056%=      5-min Rain = 0
KPPS 120725Z 05007KT 24/14 A3004 RMK A01 T02350137  RH  056%=      5-min Rain = 0
KPPS 120730Z 04005KT 24/14 A3004 RMK A01 T02350137  RH  056%=      5-min Rain = 0
KPPS 120735Z 05005KT 24/14 A3004 RMK A01 T02360137  RH  056%=      5-min Rain = 0
KPPS 120740Z 05004KT 23/14 A3004 RMK A01 T02340137  RH  057%=      5-min Rain = 0
KPPS 120745Z 04003KT 24/14 A3004 RMK A01 T02350136  RH  056%=      5-min Rain = 0
KPPS 120750Z 04003KT 24/14 A3004 RMK A01 T02350136  RH  056%=      5-min Rain = 0
KPPS 120755Z 05003KT 23/14 A3003 RMK A01 T02330136  RH  057%=      5-min Rain = 0
KPPS 120800Z 06004KT 23/14 A3003 RMK A01 T02290137  RH  058%=      5-min Rain = 0
KPPS 120805Z 06005KT 23/14 A3003 RMK A01 T02280137  RH  059%=      5-min Rain = 0
KPPS 120810Z 06004KT 22/14 A3003 RMK A01 T02240136  RH  060%=      5-min Rain = 0
KPPS 120815Z 07004KT 22/14 A3003 RMK A01 T02220136  RH  061%=      5-min Rain = 0
KPPS 120820Z 08003KT 22/14 A3003 RMK A01 T02220135  RH  061%=      5-min Rain = 0
KPPS 120825Z 09003KT 22/14 A3003 RMK A01 T02240135  RH  060%=      5-min Rain = 0
KPPS 120830Z 15004KT 23/14 A3003 RMK A01 T02270135  RH  058%=      5-min Rain = 0
KPPS 120835Z 15003KT 23/13 A3003 RMK A01 T02340134  RH  056%=      5-min Rain = 0
KPPS 120840Z 13003KT 23/13 A3002 RMK A01 T02340134  RH  056%=      5-min Rain = 0
KPPS 120845Z 10003KT 23/14 A3002 RMK A01 T02310135  RH  057%=      5-min Rain = 0
KPPS 120850Z 11004KT 23/13 A3002 RMK A01 T02270134  RH  058%=      5-min Rain = 0
KPPS 120855Z 12004KT 22/14 A3002 RMK A01 T02230135  RH  060%=      5-min Rain = 0
KPPS 120900Z 13004KT 22/14 A3002 RMK A01 T02230135  RH  060%=      5-min Rain = 0
KPPS 120905Z 13005KT 22/14 A3002 RMK A01 T02210135  RH  060%=      5-min Rain = 0
KPPS 120910Z 13005KT 22/14 A3002 RMK A01 T02220135  RH  060%=      5-min Rain = 0
KPPS 120915Z 13004KT 22/14 A3002 RMK A01 T02240135  RH  060%=      5-min Rain = 0
KPPS 120920Z 13004KT 23/14 A3002 RMK A01 T02260135  RH  059%=      5-min Rain = 0
KPPS 120925Z 13004KT 23/14 A3002 RMK A01 T02250135  RH  059%=      5-min Rain = 0
KPPS 120930Z 13004KT 22/13 A3002 RMK A01 T02240134  RH  059%=      5-min Rain = 0
KPPS 120935Z 13005KT 22/14 A3002 RMK A01 T02240135  RH  059%=      5-min Rain = 0
KPPS 120940Z 13006KT 22/13 A3002 RMK A01 T02230134  RH  060%=      5-min Rain = 0
KPPS 120945Z 13006KT 22/14 A3001 RMK A01 T02230135  RH  060%=      5-min Rain = 0
KPPS 120950Z 13006KT 22/14 A3001 RMK A01 T02240135  RH  060%=      5-min Rain = 0
KPPS 120955Z 12005KT 23/14 A3001 RMK A01 T02250135  RH  059%=      5-min Rain = 0
KPPS 121000Z 13005KT 23/14 A3001 RMK A01 T02250136  RH  059%=      5-min Rain = 0
KPPS 121005Z 14004KT 23/14 A3001 RMK A01 T02250135  RH  059%=      5-min Rain = 0
KPPS 121010Z 15004KT 22/14 A3001 RMK A01 T02240135  RH  060%=      5-min Rain = 0
KPPS 121015Z 15005KT 22/14 A3001 RMK A01 T02230135  RH  060%=      5-min Rain = 0
KPPS 121020Z 15005KT 22/14 A3001 RMK A01 T02230135  RH  060%=      5-min Rain = 0
KPPS 121025Z 14005KT 22/14 A3001 RMK A01 T02230135  RH  060%=      5-min Rain = 0
KPPS 121030Z 14004KT 22/14 A3001 RMK A01 T02220135  RH  060%=      5-min Rain = 0
KPPS 121035Z 14004KT 22/14 A3002 RMK A01 T02220135  RH  060%=      5-min Rain = 0
KPPS 121040Z 13005KT 22/14 A3002 RMK A01 T02220135  RH  060%=      5-min Rain = 0
KPPS 121045Z 13005KT 22/13 A3002 RMK A01 T02210134  RH  060%=      5-min Rain = 0
KPPS 121050Z 13005KT 22/13 A3001 RMK A01 T02200134  RH  061%=      5-min Rain = 0
KPPS 121055Z 13005KT 22/13 A3002 RMK A01 T02170134  RH  062%=      5-min Rain = 0
KPPS 121100Z 14005KT 22/13 A3002 RMK A01 T02170134  RH  062%=      5-min Rain = 0
KPPS 121105Z 13004KT 22/14 A3002 RMK A01 T02180135  RH  062%=      5-min Rain = 0
KPPS 121110Z 12004KT 22/14 A3002 RMK A01 T02180135  RH  062%=      5-min Rain = 0
KPPS 121115Z 12004KT 22/14 A3002 RMK A01 T02180135  RH  062%=      5-min Rain = 0
KPPS 121120Z 12005KT 22/14 A3002 RMK A01 T02170135  RH  062%=      5-min Rain = 0
KPPS 121125Z 11005KT 21/14 A3002 RMK A01 T02120135  RH  064%=      5-min Rain = 0
KPPS 121130Z 11005KT 21/14 A3002 RMK A01 T02110135  RH  065%=      5-min Rain = 0
KPPS 121135Z 11006KT 21/14 A3002 RMK A01 T02130136  RH  064%=      5-min Rain = 0
KPPS 121140Z 11005KT 21/14 A3002 RMK A01 T02120136  RH  064%=      5-min Rain = 0
KPPS 121145Z 12006KT 21/14 A3002 RMK A01 T02080136  RH  066%=      5-min Rain = 0
KPPS 121150Z 12005KT 21/14 A3003 RMK A01 T02050136  RH  067%=      5-min Rain = 0
KPPS 121155Z 13005KT 20/14 A3003 RMK A01 T02040136  RH  067%=      5-min Rain = 0
KPPS 121200Z 13006KT 20/14 A3003 RMK A01 T02030135  RH  068%=      5-min Rain = 0
KPPS 121205Z 13006KT 20/14 A3003 RMK A01 T02010135  RH  069%=      5-min Rain = 0
KPPS 121210Z 13005KT 20/14 A3003 RMK A01 T02010135  RH  069%=      5-min Rain = 0
KPPS 121215Z 14005KT 20/14 A3003 RMK A01 T02020136  RH  068%=      5-min Rain = 0
KPPS 121220Z 14005KT 20/14 A3003 RMK A01 T02040136  RH  068%=      5-min Rain = 0
KPPS 121225Z 14004KT 20/14 A3003 RMK A01 T02030136  RH  068%=      5-min Rain = 0
KPPS 121230Z 14004KT 20/14 A3004 RMK A01 T02030136  RH  068%=      5-min Rain = 0
KPPS 121235Z 13004KT 20/14 A3004 RMK A01 T02040137  RH  068%=      5-min Rain = 0
KPPS 121240Z 13005KT 21/14 A3004 RMK A01 T02070139  RH  068%=      5-min Rain = 0
KPPS 121245Z 13004KT 21/14 A3004 RMK A01 T02100140  RH  067%=      5-min Rain = 0
KPPS 121250Z 13004KT 21/14 A3004 RMK A01 T02110141  RH  067%=      5-min Rain = 0
KPPS 121255Z 14004KT 22/14 A3004 RMK A01 T02160141  RH  065%=      5-min Rain = 0
KPPS 121300Z 14004KT 22/14 A3004 RMK A01 T02210141  RH  063%=      5-min Rain = 0
KPPS 121305Z 14004KT 23/14 A3004 RMK A01 T02250142  RH  062%=      5-min Rain = 0
KPPS 121310Z 15004KT 23/14 A3004 RMK A01 T02280142  RH  061%=      5-min Rain = 0
KPPS 121315Z 15004KT 23/14 A3004 RMK A01 T02340142  RH  059%=      5-min Rain = 0
KPPS 121320Z 15005KT 24/14 A3004 RMK A01 T02390142  RH  057%=      5-min Rain = 0
KPPS 121325Z 15005KT 24/14 A3004 RMK A01 T02420143  RH  056%=      5-min Rain = 0
KPPS 121330Z 15006KT 25/14 A3004 RMK A01 T02450142  RH  055%=      5-min Rain = 0
KPPS 121335Z 16006KT 25/14 A3004 RMK A01 T02500142  RH  053%=      5-min Rain = 0
KPPS 121340Z 16006KT 26/14 A3004 RMK A01 T02550142  RH  052%=      5-min Rain = 0
KPPS 121345Z 16006KT 26/14 A3004 RMK A01 T02580143  RH  051%=      5-min Rain = 0
KPPS 121350Z 15008KT 26/14 A3004 RMK A01 T02610142  RH  050%=      5-min Rain = 0
KPPS 121355Z 16008KT 26/14 A3004 RMK A01 T02630143  RH  050%=      5-min Rain = 0
KPPS 121400Z 16008KT 27/14 A3004 RMK A01 T02660143  RH  049%=      5-min Rain = 0
KPPS 121405Z 16008KT 27/14 A3004 RMK A01 T02690143  RH  048%=      5-min Rain = 0
KPPS 121410Z 17009KT 27/14 A3004 RMK A01 T02720142  RH  047%=      5-min Rain = 0
KPPS 121415Z 17010KT 27/14 A3004 RMK A01 T02730141  RH  046%=      5-min Rain = 0
KPPS 121420Z 18010KT 27/14 A3004 RMK A01 T02740140  RH  046%=      5-min Rain = 0
KPPS 121425Z 18010KT 28/14 A3004 RMK A01 T02770140  RH  045%=      5-min Rain = 0
KPPS 121430Z 18010KT 28/14 A3004 RMK A01 T02790141  RH  045%=      5-min Rain = 0
KPPS 121435Z 18011KT 28/14 A3004 RMK A01 T02800142  RH  045%=      5-min Rain = 0
KPPS 121440Z 18010KT 28/14 A3004 RMK A01 T02810142  RH  045%=      5-min Rain = 0
KPPS 121445Z 18009KT 28/14 A3004 RMK A01 T02830143  RH  044%=      5-min Rain = 0
KPPS 121450Z 18010KT 29/14 A3004 RMK A01 T02860142  RH  043%=      5-min Rain = 0
KPPS 121455Z 19010KT 28/14 A3004 RMK A01 T02830142  RH  044%=      5-min Rain = 0
KPPS 121500Z 18010KT 29/14 A3004 RMK A01 T02860144  RH  044%=      5-min Rain = 0
KPPS 121505Z 19010KT 29/14 A3004 RMK A01 T02870144  RH  043%=      5-min Rain = 0
KPPS 121510Z 19008G13KT 29/14 A3004 RMK A01 T02900144  RH  043%=      5-min Rain = 0
KPPS 121515Z 19009KT 29/14 A3004 RMK A01 T02920144  RH  042%=      5-min Rain = 0
KPPS 121520Z 20010KT 29/14 A3004 RMK A01 T02940144  RH  042%=      5-min Rain = 0
KPPS 121525Z 21010KT 30/15 A3004 RMK A01 T02950145  RH  042%=      5-min Rain = 0
KPPS 121530Z 20009G14KT 30/15 A3004 RMK A01 T02980145  RH  041%=      5-min Rain = 0
KPPS 121535Z 21009KT 30/15 A3004 RMK A01 T03000145  RH  041%=      5-min Rain = 0
KPPS 121540Z 20009KT 30/15 A3004 RMK A01 T03000147  RH  041%=      5-min Rain = 0
KPPS 121545Z 20010KT 30/15 A3004 RMK A01 T03020147  RH  041%=      5-min Rain = 0
KPPS 121550Z 18010KT 30/15 A3004 RMK A01 T03040148  RH  041%=      5-min Rain = 0
KPPS 121555Z 22009KT 31/15 A3004 RMK A01 T03090148  RH  039%=      5-min Rain = 0
KPPS 121600Z 23009KT 31/14 A3004 RMK A01 T03100143  RH  038%=      5-min Rain = 0
KPPS 121605Z 23008KT 32/14 A3004 RMK A01 T03150140  RH  036%=      5-min Rain = 0
KPPS 121610Z 23007KT 31/14 A3004 RMK A01 T03140143  RH  037%=      5-min Rain = 0
KPPS 121615Z 23008G13KT 31/14 A3004 RMK A01 T03140142  RH  037%=      5-min Rain = 0
KPPS 121620Z 24011KT 31/14 A3004 RMK A01 T03130143  RH  037%=      5-min Rain = 0
KPPS 121625Z 23008G14KT 32/15 A3004 RMK A01 T03160146  RH  037%=      5-min Rain = 0
KPPS 121630Z 23009KT 32/15 A3003 RMK A01 T03160147  RH  038%=      5-min Rain = 0
KPPS 121635Z 23008KT 32/15 A3003 RMK A01 T03170146  RH  037%=      5-min Rain = 0
KPPS 121640Z 24008KT 32/15 A3003 RMK A01 T03200148  RH  037%=      5-min Rain = 0
KPPS 121645Z 23008KT 32/15 A3003 RMK A01 T03210148  RH  037%=      5-min Rain = 0
KPPS 121650Z 25008G13KT 32/15 A3003 RMK A01 T03200146  RH  036%=      5-min Rain = 0
KPPS 121655Z 21008KT 32/14 A3003 RMK A01 T03220144  RH  036%=      5-min Rain = 0
KPPS 121700Z 25009G14KT 32/15 A3003 RMK A01 T03230145  RH  036%=      5-min Rain = 0
KPPS 121705Z 24007G12KT 33/14 A3003 RMK A01 T03260144  RH  035%=      5-min Rain = 0
KPPS 121710Z 25009G15KT 33/14 A3003 RMK A01 T03280143  RH  034%=      5-min Rain = 0
KPPS 121715Z 23011KT 33/14 A3003 RMK A01 T03290137  RH  033%=      5-min Rain = 0
KPPS 121720Z 22008KT 33/14 A3003 RMK A01 T03270139  RH  033%=      5-min Rain = 0
KPPS 121725Z 24010KT 33/14 A3003 RMK A01 T03300136  RH  032%=      5-min Rain = 0
KPPS 121730Z 25009G14KT 33/14 A3003 RMK A01 T03300142  RH  033%=      5-min Rain = 0
KPPS 121735Z 23008G14KT 33/14 A3003 RMK A01 T03310142  RH  034%=      5-min Rain = 0
KPPS 121740Z 23007G13KT 34/14 A3002 RMK A01 T03360143  RH  033%=      5-min Rain = 0
KPPS 121745Z 24009KT 34/14 A3002 RMK A01 T03350142  RH  033%=      5-min Rain = 0
KPPS 121750Z 22007G14KT 34/15 A3002 RMK A01 T03350145  RH  033%=      5-min Rain = 0
KPPS 121755Z 23010G15KT 34/15 A3002 RMK A01 T03360145  RH  033%=      5-min Rain = 0
KPPS 121800Z 24010G17KT 34/14 A3002 RMK A01 T03380142  RH  032%=      5-min Rain = 0
KPPS 121805Z 21008G14KT 34/14 A3002 RMK A01 T03360144  RH  033%=      5-min Rain = 0
KPPS 121810Z 23013G18KT 34/14 A3002 RMK A01 T03380141  RH  032%=      5-min Rain = 0
KPPS 121815Z 23008G14KT 34/14 A3002 RMK A01 T03380141  RH  032%=      5-min Rain = 0
KPPS 121820Z 21007G13KT 34/14 A3001 RMK A01 T03420141  RH  031%=      5-min Rain = 0
KPPS 121825Z 23010G15KT 34/14 A3001 RMK A01 T03430142  RH  031%=      5-min Rain = 0
KPPS 121830Z 25013G18KT 35/14 A3001 RMK A01 T03480141  RH  030%=      5-min Rain = 0
KPPS 121835Z 23008G14KT 34/14 A3001 RMK A01 T03430142  RH  031%=      5-min Rain = 0
KPPS 121840Z 22010G15KT 34/14 A3001 RMK A01 T03430139  RH  031%=      5-min Rain = 0
KPPS 121845Z 26010G17KT 35/14 A3001 RMK A01 T03450137  RH  030%=      5-min Rain = 0
KPPS 121850Z 24011G18KT 35/13 A3001 RMK A01 T03480133  RH  029%=      5-min Rain = 0
KPPS 121855Z 25009G17KT 34/13 A30 RMK A01 T03440134  RH  029%=      5-min Rain = 0
KPPS 121900Z 24010G17KT 34/14 A30 RMK A01 T03430136  RH  030%=      5-min Rain = 0
KPPS 121905Z 23012G19KT 35/14 A30 RMK A01 T03500136  RH  029%=      5-min Rain = 0
KPPS 121910Z 24009G15KT 35/14 A30 RMK A01 T03500135  RH  029%=      5-min Rain = 0
KPPS 121915Z 21008G15KT 35/13 A30 RMK A01 T03490134  RH  029%=      5-min Rain = 0
KPPS 121920Z 21010G15KT 35/13 A30 RMK A01 T03510133  RH  028%=      5-min Rain = 0
KPPS 121925Z 25009G14KT 35/13 A30 RMK A01 T03520134  RH  028%=      5-min Rain = 0
KPPS 121930Z 26009G14KT 35/14 A30 RMK A01 T03480135  RH  029%=      5-min Rain = 0
KPPS 121935Z 23008G13KT 35/14 A30 RMK A01 T03500135  RH  029%=      5-min Rain = 0
KPPS 121940Z 21007G15KT 35/13 A30 RMK A01 T03480132  RH  028%=      5-min Rain = 0
KPPS 121945Z 20011G16KT 36/13 A2999 RMK A01 T03560133  RH  027%=      5-min Rain = 0
KPPS 121950Z 20010G20KT 35/13 A2999 RMK A01 T03530133  RH  028%=      5-min Rain = 0
KPPS 121955Z 22013G18KT 36/13 A2999 RMK A01 T03560132  RH  027%=      5-min Rain = 0
KPPS 122000Z 25012G17KT 36/13 A2999 RMK A01 T03570130  RH  027%=      5-min Rain = 0
KPPS 122005Z 22010G15KT 36/13 A2999 RMK A01 T03570131  RH  027%=      5-min Rain = 0
KPPS 122010Z 23011G18KT 36/13 A2999 RMK A01 T03570127  RH  026%=      5-min Rain = 0
KPPS 122015Z 20010G18KT 35/13 A2999 RMK A01 T03540126  RH  026%=      5-min Rain = 0
KPPS 122020Z 20012G19KT 36/12 A2998 RMK A01 T03560123  RH  026%=      5-min Rain = 0
KPPS 122025Z 19008KT 36/13 A2998 RMK A01 T03570125  RH  026%=      5-min Rain = 0
KPPS 122030Z 19008G14KT 36/13 A2998 RMK A01 T03620125  RH  025%=      5-min Rain = 0
KPPS 122035Z 26014G19KT 36/12 A2997 RMK A01 T03630119  RH  024%=      5-min Rain = 0
KPPS 122040Z 24012G19KT 36/12 A2997 RMK A01 T03620120  RH  024%=      5-min Rain = 0
KPPS 122045Z 20012G18KT 36/12 A2997 RMK A01 T03620119  RH  024%=      5-min Rain = 0
KPPS 122050Z 22009G16KT 36/12 A2997 RMK A01 T03620121  RH  024%=      5-min Rain = 0
KPPS 122055Z 24013G19KT 36/12 A2997 RMK A01 T03640119  RH  024%=      5-min Rain = 0
KPPS 122100Z 22008G15KT 36/12 A2997 RMK A01 T03590117  RH  024%=      5-min Rain = 0
KPPS 122105Z 25010G15KT 36/12 A2996 RMK A01 T03620116  RH  024%=      5-min Rain = 0
KPPS 122110Z 24013G19KT 36/11 A2996 RMK A01 T03640113  RH  023%=      5-min Rain = 0
KPPS 122115Z 23013G20KT 36/11 A2996 RMK A01 T03630110  RH  022%=      5-min Rain = 0
KPPS 122120Z 24014G21KT 37/11 A2996 RMK A01 T03660110  RH  022%=      5-min Rain = 0
KPPS 122125Z 27011G16KT 36/11 A2996 RMK A01 T03640108  RH  022%=      5-min Rain = 0
KPPS 122130Z 26009G17KT 37/11 A2996 RMK A01 T03660108  RH  022%=      5-min Rain = 0
KPPS 122135Z 27010KT 36/11 A2995 RMK A01 T03640109  RH  022%=      5-min Rain = 0
KPPS 122140Z 26010G15KT 36/11 A2995 RMK A01 T03630110  RH  022%=      5-min Rain = 0
KPPS 122145Z 27005G10KT 36/11 A2995 RMK A01 T03640111  RH  023%=      5-min Rain = 0
KPPS 122150Z 25013G21KT 37/11 A2995 RMK A01 T03680113  RH  022%=      5-min Rain = 0
KPPS 122155Z 23010G15KT 36/11 A2995 RMK A01 T03610114  RH  023%=      5-min Rain = 0
KPPS 122200Z 27009KT 36/12 A2995 RMK A01 T03640115  RH  023%=      5-min Rain = 0
KPPS 122205Z 26009G20KT 36/12 A2995 RMK A01 T03640115  RH  023%=      5-min Rain = 0
KPPS 122210Z 23007G13KT 36/12 A2994 RMK A01 T03620115  RH  023%=      5-min Rain = 0
KPPS 122215Z 23005KT 36/12 A2994 RMK A01 T03640115  RH  023%=      5-min Rain = 0
KPPS 122220Z 24007G13KT 37/12 A2994 RMK A01 T03670117  RH  023%=      5-min Rain = 0
KPPS 122225Z 25009KT 37/12 A2994 RMK A01 T03650115  RH  023%=      5-min Rain = 0
KPPS 122230Z 27009KT 36/12 A2993 RMK A01 T03640116  RH  023%=      5-min Rain = 0
KPPS 122235Z 28008KT 36/12 A2993 RMK A01 T03640116  RH  023%=      5-min Rain = 0
KPPS 122240Z 27008G13KT 37/12 A2993 RMK A01 T03650116  RH  023%=      5-min Rain = 0
KPPS 122245Z 26005G10KT 37/12 A2993 RMK A01 T03680116  RH  023%=      5-min Rain = 0
KPPS 122250Z 23009G15KT 37/12 A2993 RMK A01 T03660116  RH  023%=      5-min Rain = 0
KPPS 122255Z 22008G14KT 37/11 A2993 RMK A01 T03650114  RH  023%=      5-min Rain = 0
KPPS 122300Z 24007G12KT 37/12 A2992 RMK A01 T03660115  RH  023%=      5-min Rain = 0
KPPS 122305Z 23007G12KT 37/12 A2992 RMK A01 T03650115  RH  023%=      5-min Rain = 0
KPPS 122310Z 25006G12KT 37/11 A2992 RMK A01 T03690114  RH  022%=      5-min Rain = 0
KPPS 122315Z 27008G13KT 37/11 A2992 RMK A01 T03700114  RH  022%=      5-min Rain = 0
KPPS 122320Z 27005G13KT 37/11 A2992 RMK A01 T03700109  RH  022%=      5-min Rain = 0
KPPS 122325Z 33003KT 37/11 A2992 RMK A01 T03660110  RH  022%=      5-min Rain = 0
KPPS 122330Z 28007G13KT 37/11 A2992 RMK A01 T03690108  RH  022%=      5-min Rain = 0
KPPS 122335Z 27004KT 37/11 A2992 RMK A01 T03710106  RH  021%=      5-min Rain = 0
KPPS 122340Z 30004KT 37/11 A2991 RMK A01 T03730107  RH  021%=      5-min Rain = 0
KPPS 122345Z 29007G14KT 37/11 A2991 RMK A01 T03690110  RH  022%=      5-min Rain = 0
KPPS 122350Z 29007G12KT 37/11 A2991 RMK A01 T03680105  RH  021%=      5-min Rain = 0
KPPS 122355Z 32006KT 37/11 A2991 RMK A01 T03650113  RH  023%=      5-min Rain = 0
KPPS 130000Z 33009KT 36/12 A2991 RMK A01 T03630119  RH  024%=      5-min Rain = 0
KPPS 130005Z 32010KT 36/12 A2991 RMK A01 T03630119  RH  024%=      5-min Rain = 0
KPPS 130010Z 33010KT 36/12 A2991 RMK A01 T03610120  RH  024%=      5-min Rain = 0
KPPS 130015Z 33009G14KT 36/12 A2991 RMK A01 T03590118  RH  024%=      5-min Rain = 0
KPPS 130020Z 31011KT 36/12 A2992 RMK A01 T03580117  RH  024%=      5-min Rain = 0
KPPS 130025Z 31011KT 36/12 A2992 RMK A01 T03550118  RH  025%=      5-min Rain = 0
KPPS 130030Z 32011KT 36/12 A2992 RMK A01 T03550122  RH  025%=      5-min Rain = 0
KPPS 130035Z 33009KT 35/12 A2992 RMK A01 T03540122  RH  026%=      5-min Rain = 0
KPPS 130040Z 32010KT 35/12 A2992 RMK A01 T03520120  RH  026%=      5-min Rain = 0
KPPS 130045Z 32010KT 35/12 A2992 RMK A01 T03500121  RH  026%=      5-min Rain = 0
KPPS 130050Z 32011KT 35/12 A2992 RMK A01 T03490121  RH  026%=      5-min Rain = 0
KPPS 130055Z 33010KT 35/12 A2992 RMK A01 T03470123  RH  027%=      5-min Rain = 0
KPPS 130100Z 33010KT 35/12 A2992 RMK A01 T03450123  RH  027%=      5-min Rain = 0
KPPS 130105Z 33009KT 34/12 A2992 RMK A01 T03440122  RH  027%=      5-min Rain = 0
KPPS 130110Z 33010KT 34/12 A2993 RMK A01 T03410121  RH  027%=      5-min Rain = 0
KPPS 130115Z 33009KT 34/12 A2993 RMK A01 T03390123  RH  028%=      5-min Rain = 0
KPPS 130120Z 33008KT 34/13 A2993 RMK A01 T03360126  RH  029%=      5-min Rain = 0
KPPS 130125Z 33007KT 33/13 A2993 RMK A01 T03310128  RH  030%=      5-min Rain = 0
KPPS 130130Z 34006KT 33/13 A2994 RMK A01 T03280128  RH  031%=      5-min Rain = 0
KPPS 130135Z 33007KT 32/13 A2994 RMK A01 T03240129  RH  032%=      5-min Rain = 0
KPPS 130140Z 33007KT 32/13 A2994 RMK A01 T03190130  RH  033%=      5-min Rain = 0
KPPS 130145Z 33007KT 32/13 A2994 RMK A01 T03150129  RH  034%=      5-min Rain = 0
KPPS 130150Z 33007KT 31/13 A2994 RMK A01 T03110129  RH  034%=      5-min Rain = 0
KPPS 130155Z 33006KT 31/13 A2994 RMK A01 T03080129  RH  035%=      5-min Rain = 0
KPPS 130200Z 33006KT 30/13 A2994 RMK A01 T03040129  RH  036%=      5-min Rain = 0
KPPS 130205Z 33006KT 30/13 A2995 RMK A01 T03000130  RH  037%=      5-min Rain = 0
KPPS 130210Z 33007KT 30/13 A2995 RMK A01 T02970130  RH  037%=      5-min Rain = 0
KPPS 130215Z 34007KT 30/13 A2995 RMK A01 T02950130  RH  038%=      5-min Rain = 0
KPPS 130220Z 34006KT 29/13 A2995 RMK A01 T02940130  RH  038%=      5-min Rain = 0
KPPS 130225Z 33006KT 29/13 A2995 RMK A01 T02920131  RH  038%=      5-min Rain = 0
KPPS 130230Z 33005KT 29/13 A2995 RMK A01 T02900131  RH  039%=      5-min Rain = 0
KPPS 130235Z 33006KT 29/13 A2996 RMK A01 T02870133  RH  040%=      5-min Rain = 0
KPPS 130240Z 33006KT 29/13 A2996 RMK A01 T02850133  RH  041%=      5-min Rain = 0
KPPS 130245Z 33006KT 28/13 A2996 RMK A01 T02830134  RH  042%=      5-min Rain = 0
KPPS 130250Z 33006KT 28/13 A2996 RMK A01 T02800134  RH  042%=      5-min Rain = 0
KPPS 130255Z 33006KT 28/13 A2996 RMK A01 T02780133  RH  043%=      5-min Rain = 0
KPPS 130300Z 34006KT 28/13 A2996 RMK A01 T02770133  RH  043%=      5-min Rain = 0
KPPS 130305Z 00007KT 28/13 A2996 RMK A01 T02810131  RH  041%=      5-min Rain = 0
KPPS 130310Z 36006KT 29/13 A2996 RMK A01 T02920130  RH  038%=      5-min Rain = 0
KPPS 130315Z 34006KT 28/13 A2997 RMK A01 T02840132  RH  041%=      5-min Rain = 0
KPPS 130320Z 33006KT 28/13 A2997 RMK A01 T02770133  RH  043%=      5-min Rain = 0
KPPS 130325Z 33006KT 27/13 A2997 RMK A01 T02740133  RH  043%=      5-min Rain = 0
KPPS 130330Z 33006KT 27/13 A2997 RMK A01 T02730132  RH  044%=      5-min Rain = 0
KPPS 130335Z 33007KT 27/13 A2997 RMK A01 T02700133  RH  045%=      5-min Rain = 0
KPPS 130340Z 34006KT 27/13 A2997 RMK A01 T02680134  RH  045%=      5-min Rain = 0
KPPS 130345Z 33006KT 27/14 A2997 RMK A01 T02660135  RH  046%=      5-min Rain = 0
KPPS 130350Z 33006KT 26/14 A2997 RMK A01 T02640135  RH  047%=      5-min Rain = 0
KPPS 130355Z 33006KT 26/14 A2998 RMK A01 T02630136  RH  047%=      5-min Rain = 0
KPPS 130400Z 33007KT 26/14 A2998 RMK A01 T02620136  RH  048%=      5-min Rain = 0
KPPS 130405Z 33007KT 26/14 A2998 RMK A01 T02610137  RH  048%=      5-min Rain = 0
KPPS 130410Z 33007KT 26/14 A2998 RMK A01 T02590138  RH  049%=      5-min Rain = 0
KPPS 130415Z 33007KT 26/14 A2998 RMK A01 T02570138  RH  050%=      5-min Rain = 0
KPPS 130420Z 33007KT 26/14 A2998 RMK A01 T02560138  RH  050%=      5-min Rain = 0
KPPS 130425Z 33007KT 26/14 A2998 RMK A01 T02570139  RH  050%=      5-min Rain = 0
KPPS 130430Z 33006KT 26/14 A2998 RMK A01 T02570140  RH  050%=      5-min Rain = 0
KPPS 130435Z 33007KT 26/14 A2998 RMK A01 T02580140  RH  050%=      5-min Rain = 0
KPPS 130440Z 33006KT 26/14 A2998 RMK A01 T02580142  RH  051%=      5-min Rain = 0
KPPS 130445Z 33007KT 26/14 A2998 RMK A01 T02570142  RH  051%=      5-min Rain = 0
KPPS 130450Z 35007KT 26/14 A2998 RMK A01 T02560142  RH  051%=      5-min Rain = 0
KPPS 130455Z 34007KT 26/14 A2998 RMK A01 T02550143  RH  052%=      5-min Rain = 0

Page generated in 0.0174 seconds.